sensor_id;sensor_type;location;lat;lon;timestamp;P1;durP1;ratioP1;P2;durP2;ratioP2
65328;SDS011;51941;52.210;5.158;2024-01-30T00:02:17;14.63;;;5.57;;
65328;SDS011;51941;52.210;5.158;2024-01-30T00:04:44;13.30;;;5.65;;
65328;SDS011;51941;52.210;5.158;2024-01-30T00:07:10;13.13;;;6.25;;
65328;SDS011;51941;52.210;5.158;2024-01-30T00:09:38;13.13;;;5.30;;
65328;SDS011;51941;52.210;5.158;2024-01-30T00:12:05;14.13;;;6.30;;
65328;SDS011;51941;52.210;5.158;2024-01-30T00:14:32;14.57;;;5.60;;
65328;SDS011;51941;52.210;5.158;2024-01-30T00:16:59;13.38;;;5.25;;
65328;SDS011;51941;52.210;5.158;2024-01-30T00:19:27;10.15;;;4.40;;
65328;SDS011;51941;52.210;5.158;2024-01-30T00:21:54;15.05;;;5.93;;
65328;SDS011;51941;52.210;5.158;2024-01-30T00:24:20;17.45;;;5.97;;
65328;SDS011;51941;52.210;5.158;2024-01-30T00:26:47;11.73;;;4.63;;
65328;SDS011;51941;52.210;5.158;2024-01-30T00:29:14;11.10;;;4.68;;
65328;SDS011;51941;52.210;5.158;2024-01-30T00:31:44;14.68;;;5.20;;
65328;SDS011;51941;52.210;5.158;2024-01-30T00:34:11;14.05;;;5.65;;
65328;SDS011;51941;52.210;5.158;2024-01-30T00:36:39;14.10;;;5.53;;
65328;SDS011;51941;52.210;5.158;2024-01-30T00:39:06;12.27;;;5.55;;
65328;SDS011;51941;52.210;5.158;2024-01-30T00:41:34;10.25;;;4.35;;
65328;SDS011;51941;52.210;5.158;2024-01-30T00:44:01;12.82;;;5.50;;
65328;SDS011;51941;52.210;5.158;2024-01-30T00:46:27;10.35;;;4.45;;
65328;SDS011;51941;52.210;5.158;2024-01-30T00:48:54;12.80;;;5.28;;
65328;SDS011;51941;52.210;5.158;2024-01-30T00:51:20;14.63;;;5.57;;
65328;SDS011;51941;52.210;5.158;2024-01-30T00:53:48;12.88;;;5.00;;
65328;SDS011;51941;52.210;5.158;2024-01-30T00:56:15;18.48;;;6.55;;
65328;SDS011;51941;52.210;5.158;2024-01-30T00:58:43;18.30;;;5.90;;
65328;SDS011;51941;52.210;5.158;2024-01-30T01:01:10;14.85;;;5.55;;
65328;SDS011;51941;52.210;5.158;2024-01-30T01:03:36;12.68;;;5.10;;
65328;SDS011;51941;52.210;5.158;2024-01-30T01:06:03;13.23;;;5.72;;
65328;SDS011;51941;52.210;5.158;2024-01-30T01:08:30;11.18;;;4.38;;
65328;SDS011;51941;52.210;5.158;2024-01-30T01:10:59;12.50;;;5.00;;
65328;SDS011;51941;52.210;5.158;2024-01-30T01:13:25;10.88;;;4.97;;
65328;SDS011;51941;52.210;5.158;2024-01-30T01:15:54;12.18;;;5.00;;
65328;SDS011;51941;52.210;5.158;2024-01-30T01:18:21;10.23;;;4.65;;
65328;SDS011;51941;52.210;5.158;2024-01-30T01:20:47;16.38;;;6.53;;
65328;SDS011;51941;52.210;5.158;2024-01-30T01:23:14;18.23;;;6.00;;
65328;SDS011;51941;52.210;5.158;2024-01-30T01:25:41;11.40;;;4.47;;
65328;SDS011;51941;52.210;5.158;2024-01-30T01:28:09;12.43;;;5.20;;
65328;SDS011;51941;52.210;5.158;2024-01-30T01:30:35;10.07;;;4.50;;
65328;SDS011;51941;52.210;5.158;2024-01-30T01:33:02;10.23;;;4.47;;
65328;SDS011;51941;52.210;5.158;2024-01-30T01:35:29;11.48;;;4.53;;
65328;SDS011;51941;52.210;5.158;2024-01-30T01:37:56;11.20;;;5.07;;
65328;SDS011;51941;52.210;5.158;2024-01-30T01:40:24;12.02;;;4.68;;
65328;SDS011;51941;52.210;5.158;2024-01-30T01:42:53;13.85;;;4.93;;
65328;SDS011;51941;52.210;5.158;2024-01-30T01:45:22;11.43;;;4.90;;
65328;SDS011;51941;52.210;5.158;2024-01-30T01:47:50;13.23;;;5.25;;
65328;SDS011;51941;52.210;5.158;2024-01-30T01:50:18;14.80;;;5.15;;
65328;SDS011;51941;52.210;5.158;2024-01-30T01:52:46;10.18;;;4.38;;
65328;SDS011;51941;52.210;5.158;2024-01-30T01:55:14;10.55;;;4.65;;
65328;SDS011;51941;52.210;5.158;2024-01-30T01:57:42;16.73;;;5.15;;
65328;SDS011;51941;52.210;5.158;2024-01-30T02:00:10;11.02;;;5.07;;
65328;SDS011;51941;52.210;5.158;2024-01-30T02:02:39;11.77;;;4.57;;
65328;SDS011;51941;52.210;5.158;2024-01-30T02:05:07;12.85;;;4.55;;
65328;SDS011;51941;52.210;5.158;2024-01-30T02:07:34;14.35;;;5.60;;
65328;SDS011;51941;52.210;5.158;2024-01-30T02:10:01;12.63;;;4.75;;
65328;SDS011;51941;52.210;5.158;2024-01-30T02:12:28;12.27;;;5.18;;
65328;SDS011;51941;52.210;5.158;2024-01-30T02:14:55;11.15;;;4.28;;
65328;SDS011;51941;52.210;5.158;2024-01-30T02:17:23;13.02;;;4.07;;
65328;SDS011;51941;52.210;5.158;2024-01-30T02:19:51;11.75;;;4.45;;
65328;SDS011;51941;52.210;5.158;2024-01-30T02:22:19;11.30;;;4.93;;
65328;SDS011;51941;52.210;5.158;2024-01-30T02:24:46;15.85;;;4.78;;
65328;SDS011;51941;52.210;5.158;2024-01-30T02:27:13;14.30;;;5.13;;
65328;SDS011;51941;52.210;5.158;2024-01-30T02:29:40;11.30;;;4.15;;
65328;SDS011;51941;52.210;5.158;2024-01-30T02:32:07;10.40;;;4.40;;
65328;SDS011;51941;52.210;5.158;2024-01-30T02:34:34;10.93;;;4.68;;
65328;SDS011;51941;52.210;5.158;2024-01-30T02:37:01;12.55;;;4.80;;
65328;SDS011;51941;52.210;5.158;2024-01-30T02:39:29;10.07;;;3.88;;
65328;SDS011;51941;52.210;5.158;2024-01-30T02:41:55;12.15;;;4.28;;
65328;SDS011;51941;52.210;5.158;2024-01-30T02:44:22;10.55;;;4.40;;
65328;SDS011;51941;52.210;5.158;2024-01-30T02:46:49;11.45;;;5.00;;
65328;SDS011;51941;52.210;5.158;2024-01-30T02:49:15;12.40;;;5.22;;
65328;SDS011;51941;52.210;5.158;2024-01-30T02:51:42;10.52;;;4.72;;
65328;SDS011;51941;52.210;5.158;2024-01-30T02:54:09;12.13;;;4.28;;
65328;SDS011;51941;52.210;5.158;2024-01-30T02:56:37;13.70;;;4.45;;
65328;SDS011;51941;52.210;5.158;2024-01-30T02:59:03;10.82;;;4.30;;
65328;SDS011;51941;52.210;5.158;2024-01-30T03:01:30;10.68;;;4.47;;
65328;SDS011;51941;52.210;5.158;2024-01-30T03:03:57;10.35;;;4.22;;
65328;SDS011;51941;52.210;5.158;2024-01-30T03:06:24;9.85;;;4.60;;
65328;SDS011;51941;52.210;5.158;2024-01-30T03:08:50;13.20;;;5.10;;
65328;SDS011;51941;52.210;5.158;2024-01-30T03:11:17;10.25;;;4.22;;
65328;SDS011;51941;52.210;5.158;2024-01-30T03:13:45;13.77;;;5.20;;
65328;SDS011;51941;52.210;5.158;2024-01-30T03:16:12;13.07;;;4.47;;
65328;SDS011;51941;52.210;5.158;2024-01-30T03:18:38;12.85;;;5.18;;
65328;SDS011;51941;52.210;5.158;2024-01-30T03:21:05;13.18;;;4.72;;
65328;SDS011;51941;52.210;5.158;2024-01-30T03:23:31;17.17;;;5.65;;
65328;SDS011;51941;52.210;5.158;2024-01-30T03:25:58;13.35;;;4.93;;
65328;SDS011;51941;52.210;5.158;2024-01-30T03:28:25;12.55;;;4.38;;
65328;SDS011;51941;52.210;5.158;2024-01-30T03:30:53;11.15;;;4.18;;
65328;SDS011;51941;52.210;5.158;2024-01-30T03:33:20;13.02;;;4.35;;
65328;SDS011;51941;52.210;5.158;2024-01-30T03:35:46;12.98;;;5.10;;
65328;SDS011;51941;52.210;5.158;2024-01-30T03:38:13;10.80;;;4.53;;
65328;SDS011;51941;52.210;5.158;2024-01-30T03:40:40;12.88;;;5.60;;
65328;SDS011;51941;52.210;5.158;2024-01-30T03:43:06;12.73;;;5.00;;
65328;SDS011;51941;52.210;5.158;2024-01-30T03:45:33;7.60;;;3.53;;
65328;SDS011;51941;52.210;5.158;2024-01-30T03:48:01;10.52;;;4.22;;
65328;SDS011;51941;52.210;5.158;2024-01-30T03:50:28;12.52;;;4.28;;
65328;SDS011;51941;52.210;5.158;2024-01-30T03:52:54;11.90;;;4.75;;
65328;SDS011;51941;52.210;5.158;2024-01-30T03:55:21;15.57;;;5.45;;
65328;SDS011;51941;52.210;5.158;2024-01-30T03:57:47;11.27;;;4.70;;
65328;SDS011;51941;52.210;5.158;2024-01-30T04:00:14;8.90;;;3.70;;
65328;SDS011;51941;52.210;5.158;2024-01-30T04:02:42;10.82;;;4.47;;
65328;SDS011;51941;52.210;5.158;2024-01-30T04:05:10;13.18;;;4.57;;
65328;SDS011;51941;52.210;5.158;2024-01-30T04:07:36;12.68;;;3.70;;
65328;SDS011;51941;52.210;5.158;2024-01-30T04:10:03;11.77;;;4.28;;
65328;SDS011;51941;52.210;5.158;2024-01-30T04:12:31;8.45;;;3.75;;
65328;SDS011;51941;52.210;5.158;2024-01-30T04:14:58;11.73;;;4.20;;
65328;SDS011;51941;52.210;5.158;2024-01-30T04:17:24;15.70;;;5.15;;
65328;SDS011;51941;52.210;5.158;2024-01-30T04:19:51;10.77;;;4.53;;
65328;SDS011;51941;52.210;5.158;2024-01-30T04:22:19;9.73;;;4.38;;
65328;SDS011;51941;52.210;5.158;2024-01-30T04:24:46;11.57;;;4.50;;
65328;SDS011;51941;52.210;5.158;2024-01-30T04:27:12;10.10;;;4.75;;
65328;SDS011;51941;52.210;5.158;2024-01-30T04:29:39;12.00;;;5.13;;
65328;SDS011;51941;52.210;5.158;2024-01-30T04:32:06;12.80;;;5.00;;
65328;SDS011;51941;52.210;5.158;2024-01-30T04:34:33;11.30;;;4.90;;
65328;SDS011;51941;52.210;5.158;2024-01-30T04:36:59;12.45;;;5.25;;
65328;SDS011;51941;52.210;5.158;2024-01-30T04:39:27;11.68;;;4.68;;
65328;SDS011;51941;52.210;5.158;2024-01-30T04:41:54;13.63;;;4.63;;
65328;SDS011;51941;52.210;5.158;2024-01-30T04:44:20;16.70;;;5.03;;
65328;SDS011;51941;52.210;5.158;2024-01-30T04:46:47;11.55;;;5.30;;
65328;SDS011;51941;52.210;5.158;2024-01-30T04:49:14;10.45;;;4.93;;
65328;SDS011;51941;52.210;5.158;2024-01-30T04:51:40;12.18;;;4.43;;
65328;SDS011;51941;52.210;5.158;2024-01-30T04:54:07;11.18;;;4.25;;
65328;SDS011;51941;52.210;5.158;2024-01-30T04:56:35;12.93;;;5.25;;
65328;SDS011;51941;52.210;5.158;2024-01-30T04:59:02;14.68;;;5.38;;
65328;SDS011;51941;52.210;5.158;2024-01-30T05:01:29;10.63;;;4.40;;
65328;SDS011;51941;52.210;5.158;2024-01-30T05:03:55;12.52;;;5.03;;
65328;SDS011;51941;52.210;5.158;2024-01-30T05:06:25;10.80;;;4.68;;
65328;SDS011;51941;52.210;5.158;2024-01-30T05:08:52;14.18;;;4.78;;
65328;SDS011;51941;52.210;5.158;2024-01-30T05:11:18;12.05;;;4.55;;
65328;SDS011;51941;52.210;5.158;2024-01-30T05:13:47;15.70;;;5.05;;
65328;SDS011;51941;52.210;5.158;2024-01-30T05:16:13;13.55;;;5.55;;
65328;SDS011;51941;52.210;5.158;2024-01-30T05:18:40;11.27;;;4.80;;
65328;SDS011;51941;52.210;5.158;2024-01-30T05:21:07;15.50;;;5.40;;
65328;SDS011;51941;52.210;5.158;2024-01-30T05:23:33;11.15;;;4.55;;
65328;SDS011;51941;52.210;5.158;2024-01-30T05:26:00;11.57;;;4.57;;
65328;SDS011;51941;52.210;5.158;2024-01-30T05:28:27;11.25;;;4.65;;
65328;SDS011;51941;52.210;5.158;2024-01-30T05:30:56;13.93;;;4.57;;
65328;SDS011;51941;52.210;5.158;2024-01-30T05:33:22;14.50;;;5.28;;
65328;SDS011;51941;52.210;5.158;2024-01-30T05:35:49;10.73;;;5.07;;
65328;SDS011;51941;52.210;5.158;2024-01-30T05:38:19;12.27;;;4.97;;
65328;SDS011;51941;52.210;5.158;2024-01-30T05:40:46;12.60;;;4.80;;
65328;SDS011;51941;52.210;5.158;2024-01-30T05:43:13;15.15;;;4.97;;
65328;SDS011;51941;52.210;5.158;2024-01-30T05:45:39;10.32;;;4.32;;
65328;SDS011;51941;52.210;5.158;2024-01-30T05:48:08;11.20;;;3.75;;
65328;SDS011;51941;52.210;5.158;2024-01-30T05:50:34;14.23;;;5.65;;
65328;SDS011;51941;52.210;5.158;2024-01-30T05:53:01;15.48;;;6.47;;
65328;SDS011;51941;52.210;5.158;2024-01-30T05:55:28;12.75;;;4.97;;
65328;SDS011;51941;52.210;5.158;2024-01-30T05:57:54;12.98;;;5.32;;
65328;SDS011;51941;52.210;5.158;2024-01-30T06:00:21;13.27;;;5.18;;
65328;SDS011;51941;52.210;5.158;2024-01-30T06:02:48;12.32;;;3.83;;
65328;SDS011;51941;52.210;5.158;2024-01-30T06:05:16;9.13;;;4.35;;
65328;SDS011;51941;52.210;5.158;2024-01-30T06:07:42;11.15;;;4.63;;
65328;SDS011;51941;52.210;5.158;2024-01-30T06:10:09;12.95;;;5.10;;
65328;SDS011;51941;52.210;5.158;2024-01-30T06:12:36;10.65;;;3.45;;
65328;SDS011;51941;52.210;5.158;2024-01-30T06:15:04;10.45;;;4.30;;
65328;SDS011;51941;52.210;5.158;2024-01-30T06:17:31;18.15;;;4.22;;
65328;SDS011;51941;52.210;5.158;2024-01-30T06:19:58;10.30;;;3.83;;
65328;SDS011;51941;52.210;5.158;2024-01-30T06:22:27;12.90;;;4.65;;
65328;SDS011;51941;52.210;5.158;2024-01-30T06:24:54;11.55;;;4.50;;
65328;SDS011;51941;52.210;5.158;2024-01-30T06:27:21;11.10;;;4.47;;
65328;SDS011;51941;52.210;5.158;2024-01-30T06:29:48;14.10;;;4.03;;
65328;SDS011;51941;52.210;5.158;2024-01-30T06:32:15;10.73;;;3.85;;
65328;SDS011;51941;52.210;5.158;2024-01-30T06:34:42;12.95;;;4.88;;
65328;SDS011;51941;52.210;5.158;2024-01-30T06:37:09;13.90;;;5.10;;
65328;SDS011;51941;52.210;5.158;2024-01-30T06:39:37;12.52;;;4.57;;
65328;SDS011;51941;52.210;5.158;2024-01-30T06:42:04;10.95;;;4.35;;
65328;SDS011;51941;52.210;5.158;2024-01-30T06:44:31;12.90;;;4.45;;
65328;SDS011;51941;52.210;5.158;2024-01-30T06:46:57;9.95;;;3.60;;
65328;SDS011;51941;52.210;5.158;2024-01-30T06:49:24;11.00;;;3.95;;
65328;SDS011;51941;52.210;5.158;2024-01-30T06:51:51;11.35;;;4.22;;
65328;SDS011;51941;52.210;5.158;2024-01-30T06:54:17;10.30;;;4.07;;
65328;SDS011;51941;52.210;5.158;2024-01-30T06:56:45;9.18;;;3.10;;
65328;SDS011;51941;52.210;5.158;2024-01-30T06:59:12;9.65;;;3.92;;
65328;SDS011;51941;52.210;5.158;2024-01-30T07:01:39;9.75;;;3.90;;
65328;SDS011;51941;52.210;5.158;2024-01-30T07:04:05;10.05;;;4.15;;
65328;SDS011;51941;52.210;5.158;2024-01-30T07:06:32;11.63;;;3.80;;
65328;SDS011;51941;52.210;5.158;2024-01-30T07:08:59;11.80;;;3.90;;
65328;SDS011;51941;52.210;5.158;2024-01-30T07:11:25;11.18;;;4.32;;
65328;SDS011;51941;52.210;5.158;2024-01-30T07:13:55;8.73;;;3.38;;
65328;SDS011;51941;52.210;5.158;2024-01-30T07:16:21;11.23;;;4.38;;
65328;SDS011;51941;52.210;5.158;2024-01-30T07:18:48;10.93;;;4.13;;
65328;SDS011;51941;52.210;5.158;2024-01-30T07:21:15;10.57;;;3.72;;
65328;SDS011;51941;52.210;5.158;2024-01-30T07:23:42;12.23;;;4.35;;
65328;SDS011;51941;52.210;5.158;2024-01-30T07:26:09;11.35;;;3.85;;
65328;SDS011;51941;52.210;5.158;2024-01-30T07:28:35;11.30;;;4.57;;
65328;SDS011;51941;52.210;5.158;2024-01-30T07:31:04;9.00;;;4.00;;
65328;SDS011;51941;52.210;5.158;2024-01-30T07:33:31;9.48;;;4.43;;
65328;SDS011;51941;52.210;5.158;2024-01-30T07:35:58;9.48;;;4.15;;
65328;SDS011;51941;52.210;5.158;2024-01-30T07:38:25;10.07;;;3.50;;
65328;SDS011;51941;52.210;5.158;2024-01-30T07:40:51;11.18;;;4.53;;
65328;SDS011;51941;52.210;5.158;2024-01-30T07:43:21;7.63;;;3.33;;
65328;SDS011;51941;52.210;5.158;2024-01-30T07:45:48;10.13;;;3.88;;
65328;SDS011;51941;52.210;5.158;2024-01-30T07:48:16;10.80;;;4.13;;
65328;SDS011;51941;52.210;5.158;2024-01-30T07:50:43;10.23;;;3.92;;
65328;SDS011;51941;52.210;5.158;2024-01-30T07:53:09;15.02;;;4.30;;
65328;SDS011;51941;52.210;5.158;2024-01-30T07:55:36;11.45;;;3.88;;
65328;SDS011;51941;52.210;5.158;2024-01-30T07:58:03;10.00;;;4.32;;
65328;SDS011;51941;52.210;5.158;2024-01-30T08:00:30;12.82;;;3.72;;
65328;SDS011;51941;52.210;5.158;2024-01-30T08:02:57;12.98;;;3.10;;
65328;SDS011;51941;52.210;5.158;2024-01-30T08:05:25;10.35;;;3.47;;
65328;SDS011;51941;52.210;5.158;2024-01-30T08:07:52;10.25;;;3.22;;
65328;SDS011;51941;52.210;5.158;2024-01-30T08:10:19;10.85;;;3.75;;
65328;SDS011;51941;52.210;5.158;2024-01-30T08:12:46;11.27;;;3.58;;
65328;SDS011;51941;52.210;5.158;2024-01-30T08:15:13;12.07;;;3.92;;
65328;SDS011;51941;52.210;5.158;2024-01-30T08:17:39;10.10;;;3.85;;
65328;SDS011;51941;52.210;5.158;2024-01-30T08:20:06;16.08;;;4.00;;
65328;SDS011;51941;52.210;5.158;2024-01-30T08:22:37;10.38;;;4.40;;
65328;SDS011;51941;52.210;5.158;2024-01-30T08:25:05;13.60;;;3.45;;
65328;SDS011;51941;52.210;5.158;2024-01-30T08:27:32;12.88;;;4.30;;
65328;SDS011;51941;52.210;5.158;2024-01-30T08:30:00;11.32;;;3.65;;
65328;SDS011;51941;52.210;5.158;2024-01-30T08:32:27;8.93;;;3.35;;
65328;SDS011;51941;52.210;5.158;2024-01-30T08:34:54;13.95;;;4.18;;
65328;SDS011;51941;52.210;5.158;2024-01-30T08:37:21;8.82;;;3.38;;
65328;SDS011;51941;52.210;5.158;2024-01-30T08:39:52;13.80;;;3.70;;
65328;SDS011;51941;52.210;5.158;2024-01-30T08:42:19;10.25;;;4.38;;
65328;SDS011;51941;52.210;5.158;2024-01-30T08:44:47;13.85;;;4.07;;
65328;SDS011;51941;52.210;5.158;2024-01-30T08:47:14;13.88;;;4.05;;
65328;SDS011;51941;52.210;5.158;2024-01-30T08:49:42;11.05;;;4.28;;
65328;SDS011;51941;52.210;5.158;2024-01-30T08:52:09;12.35;;;4.07;;
65328;SDS011;51941;52.210;5.158;2024-01-30T08:54:36;8.65;;;4.13;;
65328;SDS011;51941;52.210;5.158;2024-01-30T08:57:05;12.48;;;4.70;;
65328;SDS011;51941;52.210;5.158;2024-01-30T08:59:31;14.77;;;4.63;;
65328;SDS011;51941;52.210;5.158;2024-01-30T09:01:58;10.65;;;3.85;;
65328;SDS011;51941;52.210;5.158;2024-01-30T09:04:25;12.93;;;3.60;;
65328;SDS011;51941;52.210;5.158;2024-01-30T09:06:52;11.07;;;4.25;;
65328;SDS011;51941;52.210;5.158;2024-01-30T09:09:18;11.27;;;4.47;;
65328;SDS011;51941;52.210;5.158;2024-01-30T09:11:45;11.20;;;3.55;;
65328;SDS011;51941;52.210;5.158;2024-01-30T09:14:13;11.52;;;5.10;;
65328;SDS011;51941;52.210;5.158;2024-01-30T09:16:40;12.27;;;3.95;;
65328;SDS011;51941;52.210;5.158;2024-01-30T09:19:07;11.15;;;4.10;;
65328;SDS011;51941;52.210;5.158;2024-01-30T09:21:33;14.27;;;4.05;;
65328;SDS011;51941;52.210;5.158;2024-01-30T09:24:01;7.72;;;3.20;;
65328;SDS011;51941;52.210;5.158;2024-01-30T09:26:29;8.68;;;4.15;;
65328;SDS011;51941;52.210;5.158;2024-01-30T09:28:56;15.20;;;4.22;;
65328;SDS011;51941;52.210;5.158;2024-01-30T09:31:24;9.45;;;3.92;;
65328;SDS011;51941;52.210;5.158;2024-01-30T09:33:50;11.10;;;4.13;;
65328;SDS011;51941;52.210;5.158;2024-01-30T09:36:19;12.85;;;3.95;;
65328;SDS011;51941;52.210;5.158;2024-01-30T09:38:46;12.13;;;4.95;;
65328;SDS011;51941;52.210;5.158;2024-01-30T09:41:13;13.27;;;3.80;;
65328;SDS011;51941;52.210;5.158;2024-01-30T09:43:39;10.75;;;3.75;;
65328;SDS011;51941;52.210;5.158;2024-01-30T09:46:07;10.65;;;3.83;;
65328;SDS011;51941;52.210;5.158;2024-01-30T09:48:39;11.20;;;3.83;;
65328;SDS011;51941;52.210;5.158;2024-01-30T09:51:07;11.45;;;3.83;;
65328;SDS011;51941;52.210;5.158;2024-01-30T09:53:35;11.55;;;3.88;;
65328;SDS011;51941;52.210;5.158;2024-01-30T09:56:03;11.25;;;3.90;;
65328;SDS011;51941;52.210;5.158;2024-01-30T09:58:31;9.48;;;3.95;;
65328;SDS011;51941;52.210;5.158;2024-01-30T10:00:58;11.57;;;3.97;;
65328;SDS011;51941;52.210;5.158;2024-01-30T10:03:25;9.55;;;3.75;;
65328;SDS011;51941;52.210;5.158;2024-01-30T10:05:53;12.98;;;5.13;;
65328;SDS011;51941;52.210;5.158;2024-01-30T10:08:22;12.32;;;4.20;;
65328;SDS011;51941;52.210;5.158;2024-01-30T10:10:49;10.73;;;3.50;;
65328;SDS011;51941;52.210;5.158;2024-01-30T10:13:16;10.07;;;3.78;;
65328;SDS011;51941;52.210;5.158;2024-01-30T10:15:43;11.63;;;3.72;;
65328;SDS011;51941;52.210;5.158;2024-01-30T10:18:10;9.85;;;4.20;;
65328;SDS011;51941;52.210;5.158;2024-01-30T10:20:37;10.23;;;4.00;;
65328;SDS011;51941;52.210;5.158;2024-01-30T10:23:05;12.07;;;4.07;;
65328;SDS011;51941;52.210;5.158;2024-01-30T10:25:33;11.77;;;4.43;;
65328;SDS011;51941;52.210;5.158;2024-01-30T10:28:02;9.68;;;3.75;;
65328;SDS011;51941;52.210;5.158;2024-01-30T10:30:29;11.98;;;4.43;;
65328;SDS011;51941;52.210;5.158;2024-01-30T10:32:56;12.70;;;3.95;;
65328;SDS011;51941;52.210;5.158;2024-01-30T10:35:23;9.25;;;3.88;;
65328;SDS011;51941;52.210;5.158;2024-01-30T10:37:50;11.32;;;4.03;;
65328;SDS011;51941;52.210;5.158;2024-01-30T10:40:19;9.80;;;3.58;;
65328;SDS011;51941;52.210;5.158;2024-01-30T10:42:50;11.02;;;3.35;;
65328;SDS011;51941;52.210;5.158;2024-01-30T10:45:20;10.20;;;3.75;;
65328;SDS011;51941;52.210;5.158;2024-01-30T10:47:49;10.77;;;2.97;;
65328;SDS011;51941;52.210;5.158;2024-01-30T10:50:16;9.82;;;3.33;;
65328;SDS011;51941;52.210;5.158;2024-01-30T10:52:43;11.00;;;3.50;;
65328;SDS011;51941;52.210;5.158;2024-01-30T10:55:11;12.52;;;3.38;;
65328;SDS011;51941;52.210;5.158;2024-01-30T10:57:39;7.95;;;2.45;;
65328;SDS011;51941;52.210;5.158;2024-01-30T11:00:07;7.75;;;2.60;;
65328;SDS011;51941;52.210;5.158;2024-01-30T11:02:36;7.50;;;2.20;;
65328;SDS011;51941;52.210;5.158;2024-01-30T11:05:05;8.48;;;2.25;;
65328;SDS011;51941;52.210;5.158;2024-01-30T11:07:33;4.88;;;1.80;;
65328;SDS011;51941;52.210;5.158;2024-01-30T11:10:00;8.05;;;1.88;;
65328;SDS011;51941;52.210;5.158;2024-01-30T11:12:28;5.05;;;1.67;;
65328;SDS011;51941;52.210;5.158;2024-01-30T11:15:03;5.60;;;1.65;;
65328;SDS011;51941;52.210;5.158;2024-01-30T11:17:44;4.55;;;1.45;;
65328;SDS011;51941;52.210;5.158;2024-01-30T11:20:12;5.35;;;1.42;;
65328;SDS011;51941;52.210;5.158;2024-01-30T11:22:41;9.13;;;2.05;;
65328;SDS011;51941;52.210;5.158;2024-01-30T11:25:13;6.95;;;1.40;;
65328;SDS011;51941;52.210;5.158;2024-01-30T11:27:40;6.43;;;1.75;;
65328;SDS011;51941;52.210;5.158;2024-01-30T11:30:10;6.18;;;1.77;;
65328;SDS011;51941;52.210;5.158;2024-01-30T11:32:37;4.80;;;1.60;;
65328;SDS011;51941;52.210;5.158;2024-01-30T11:35:04;5.43;;;1.92;;
65328;SDS011;51941;52.210;5.158;2024-01-30T11:37:35;12.20;;;2.72;;
65328;SDS011;51941;52.210;5.158;2024-01-30T11:40:04;8.07;;;2.05;;
65328;SDS011;51941;52.210;5.158;2024-01-30T11:42:31;8.98;;;2.22;;
65328;SDS011;51941;52.210;5.158;2024-01-30T11:44:59;7.05;;;1.65;;
65328;SDS011;51941;52.210;5.158;2024-01-30T11:47:28;5.70;;;1.90;;
65328;SDS011;51941;52.210;5.158;2024-01-30T11:49:56;7.18;;;1.77;;
65328;SDS011;51941;52.210;5.158;2024-01-30T11:52:23;6.35;;;1.73;;
65328;SDS011;51941;52.210;5.158;2024-01-30T11:54:50;4.13;;;1.50;;
65328;SDS011;51941;52.210;5.158;2024-01-30T11:57:17;4.85;;;1.27;;
65328;SDS011;51941;52.210;5.158;2024-01-30T11:59:43;5.57;;;1.60;;
65328;SDS011;51941;52.210;5.158;2024-01-30T12:02:15;5.05;;;1.50;;
65328;SDS011;51941;52.210;5.158;2024-01-30T12:04:43;7.95;;;1.48;;
65328;SDS011;51941;52.210;5.158;2024-01-30T12:07:10;11.20;;;1.58;;
65328;SDS011;51941;52.210;5.158;2024-01-30T12:09:38;3.42;;;0.80;;
65328;SDS011;51941;52.210;5.158;2024-01-30T12:12:05;4.63;;;0.90;;
65328;SDS011;51941;52.210;5.158;2024-01-30T12:14:37;3.00;;;0.93;;
65328;SDS011;51941;52.210;5.158;2024-01-30T12:17:05;1.65;;;0.70;;
65328;SDS011;51941;52.210;5.158;2024-01-30T12:19:33;3.38;;;0.80;;
65328;SDS011;51941;52.210;5.158;2024-01-30T12:22:01;2.33;;;0.80;;
65328;SDS011;51941;52.210;5.158;2024-01-30T12:24:29;2.95;;;0.77;;
65328;SDS011;51941;52.210;5.158;2024-01-30T12:26:56;4.13;;;1.17;;
65328;SDS011;51941;52.210;5.158;2024-01-30T12:29:23;7.28;;;1.27;;
65328;SDS011;51941;52.210;5.158;2024-01-30T12:31:52;2.53;;;0.70;;
65328;SDS011;51941;52.210;5.158;2024-01-30T12:34:19;1.90;;;0.60;;
65328;SDS011;51941;52.210;5.158;2024-01-30T12:36:46;5.53;;;0.80;;
65328;SDS011;51941;52.210;5.158;2024-01-30T12:39:15;6.45;;;1.48;;
65328;SDS011;51941;52.210;5.158;2024-01-30T12:41:41;3.05;;;0.82;;
65328;SDS011;51941;52.210;5.158;2024-01-30T12:44:08;2.55;;;0.80;;
65328;SDS011;51941;52.210;5.158;2024-01-30T12:46:35;3.67;;;0.77;;
65328;SDS011;51941;52.210;5.158;2024-01-30T12:49:03;2.85;;;1.00;;
65328;SDS011;51941;52.210;5.158;2024-01-30T12:51:29;4.75;;;1.48;;
65328;SDS011;51941;52.210;5.158;2024-01-30T12:53:56;4.05;;;1.00;;
65328;SDS011;51941;52.210;5.158;2024-01-30T12:56:24;3.17;;;1.00;;
65328;SDS011;51941;52.210;5.158;2024-01-30T12:58:51;5.60;;;1.00;;
65328;SDS011;51941;52.210;5.158;2024-01-30T13:01:18;2.50;;;0.90;;
65328;SDS011;51941;52.210;5.158;2024-01-30T13:03:44;10.73;;;1.92;;
65328;SDS011;51941;52.210;5.158;2024-01-30T13:06:11;4.38;;;1.00;;
65328;SDS011;51941;52.210;5.158;2024-01-30T13:08:38;3.80;;;1.02;;
65328;SDS011;51941;52.210;5.158;2024-01-30T13:11:05;7.65;;;2.55;;
65328;SDS011;51941;52.210;5.158;2024-01-30T13:13:33;4.82;;;1.10;;
65328;SDS011;51941;52.210;5.158;2024-01-30T13:16:00;3.67;;;0.85;;
65328;SDS011;51941;52.210;5.158;2024-01-30T13:18:27;3.03;;;0.95;;
65328;SDS011;51941;52.210;5.158;2024-01-30T13:20:54;5.32;;;1.33;;
65328;SDS011;51941;52.210;5.158;2024-01-30T13:23:24;5.63;;;1.00;;
65328;SDS011;51941;52.210;5.158;2024-01-30T13:25:51;5.22;;;1.00;;
65328;SDS011;51941;52.210;5.158;2024-01-30T13:28:19;4.82;;;1.10;;
65328;SDS011;51941;52.210;5.158;2024-01-30T13:30:47;8.23;;;1.35;;
65328;SDS011;51941;52.210;5.158;2024-01-30T13:33:14;8.63;;;1.33;;
65328;SDS011;51941;52.210;5.158;2024-01-30T13:35:41;4.88;;;1.10;;
65328;SDS011;51941;52.210;5.158;2024-01-30T13:38:08;3.75;;;1.10;;
65328;SDS011;51941;52.210;5.158;2024-01-30T13:40:35;3.33;;;1.20;;
65328;SDS011;51941;52.210;5.158;2024-01-30T13:43:02;7.10;;;1.40;;
65328;SDS011;51941;52.210;5.158;2024-01-30T13:45:32;5.40;;;1.15;;
65328;SDS011;51941;52.210;5.158;2024-01-30T13:48:03;5.55;;;1.10;;
65328;SDS011;51941;52.210;5.158;2024-01-30T13:50:33;4.90;;;1.58;;
65328;SDS011;51941;52.210;5.158;2024-01-30T13:53:01;3.95;;;1.25;;
65328;SDS011;51941;52.210;5.158;2024-01-30T13:55:29;6.07;;;1.20;;
65328;SDS011;51941;52.210;5.158;2024-01-30T13:57:56;9.40;;;1.67;;
65328;SDS011;51941;52.210;5.158;2024-01-30T14:00:23;3.25;;;0.93;;
65328;SDS011;51941;52.210;5.158;2024-01-30T14:02:51;3.70;;;1.40;;
65328;SDS011;51941;52.210;5.158;2024-01-30T14:05:21;3.83;;;1.35;;
65328;SDS011;51941;52.210;5.158;2024-01-30T14:07:49;4.88;;;1.70;;
65328;SDS011;51941;52.210;5.158;2024-01-30T14:10:17;4.40;;;2.00;;
65328;SDS011;51941;52.210;5.158;2024-01-30T14:12:43;5.25;;;1.60;;
65328;SDS011;51941;52.210;5.158;2024-01-30T14:15:10;7.88;;;2.25;;
65328;SDS011;51941;52.210;5.158;2024-01-30T14:17:37;5.95;;;1.92;;
65328;SDS011;51941;52.210;5.158;2024-01-30T14:20:05;4.80;;;1.70;;
65328;SDS011;51941;52.210;5.158;2024-01-30T14:22:34;7.03;;;1.20;;
65328;SDS011;51941;52.210;5.158;2024-01-30T14:25:01;5.63;;;1.70;;
65328;SDS011;51941;52.210;5.158;2024-01-30T14:27:28;2.67;;;1.08;;
65328;SDS011;51941;52.210;5.158;2024-01-30T14:29:55;5.18;;;1.25;;
65328;SDS011;51941;52.210;5.158;2024-01-30T14:32:22;6.13;;;1.70;;
65328;SDS011;51941;52.210;5.158;2024-01-30T14:34:50;4.40;;;1.45;;
65328;SDS011;51941;52.210;5.158;2024-01-30T14:37:17;5.13;;;1.60;;
65328;SDS011;51941;52.210;5.158;2024-01-30T14:39:46;3.72;;;1.33;;